createdAt,value
2022-09-26T00:01:38.438Z,99.90
2022-09-26T00:04:09.877Z,99.90
2022-09-26T00:06:38.325Z,99.90
2022-09-26T00:09:06.714Z,99.90
2022-09-26T00:11:36.058Z,99.90
2022-09-26T00:14:06.728Z,99.90
2022-09-26T00:16:36.864Z,99.90
2022-09-26T00:19:05.863Z,99.90
2022-09-26T00:21:34.464Z,99.90
2022-09-26T00:24:03.427Z,99.90
2022-09-26T00:26:32.946Z,99.90
2022-09-26T00:29:04.610Z,99.90
2022-09-26T00:31:35.892Z,99.90
2022-09-26T00:34:05.049Z,99.90
2022-09-26T00:36:38.457Z,99.90
2022-09-26T00:39:08.496Z,99.90
2022-09-26T00:41:38.241Z,99.90
2022-09-26T00:44:42.290Z,99.90
2022-09-26T00:47:30.559Z,99.90
2022-09-26T00:50:03.324Z,99.90
2022-09-26T00:52:35.337Z,99.90
2022-09-26T00:55:06.543Z,99.90
2022-09-26T00:57:38.217Z,99.90
2022-09-26T01:00:10.815Z,99.90
2022-09-26T01:02:40.792Z,99.90
2022-09-26T01:05:11.911Z,99.90
2022-09-26T01:07:40.219Z,99.90
2022-09-26T01:10:09.928Z,99.90
2022-09-26T01:12:38.916Z,99.90
2022-09-26T01:15:09.138Z,99.90
2022-09-26T01:17:41.109Z,99.90
2022-09-26T01:20:22.192Z,99.90
2022-09-26T01:23:27.104Z,99.90
2022-09-26T01:26:25.175Z,99.90
2022-09-26T01:29:22.995Z,99.90
2022-09-26T01:32:22.027Z,99.90
2022-09-26T01:34:59.457Z,99.90
2022-09-26T01:37:34.293Z,99.90
2022-09-26T01:40:11.143Z,99.90
2022-09-26T01:42:47.961Z,99.90
2022-09-26T01:45:19.818Z,99.90
2022-09-26T01:47:56.124Z,99.90
2022-09-26T01:50:35.698Z,99.90
2022-09-26T01:53:09.390Z,99.90
2022-09-26T01:55:40.477Z,99.90
2022-09-26T01:58:14.247Z,99.90
2022-09-26T02:00:46.294Z,99.90
2022-09-26T02:03:19.293Z,99.90
2022-09-26T02:05:51.684Z,99.90
2022-09-26T02:08:25.031Z,99.90
2022-09-26T02:10:59.563Z,99.90
2022-09-26T02:13:32.461Z,99.90
2022-09-26T02:16:15.203Z,99.90
2022-09-26T02:18:49.307Z,99.90
2022-09-26T02:21:21.243Z,99.90
2022-09-26T02:23:49.839Z,99.90
2022-09-26T02:26:18.214Z,99.90
2022-09-26T02:28:46.784Z,99.90
2022-09-26T02:31:21.416Z,99.90
2022-09-26T02:33:52.559Z,99.90
2022-09-26T02:36:21.987Z,99.90
2022-09-26T02:38:50.212Z,99.90
2022-09-26T02:41:25.729Z,99.90
2022-09-26T02:44:11.788Z,99.90
2022-09-26T02:47:06.493Z,99.90
2022-09-26T02:49:51.692Z,99.90
2022-09-26T02:52:34.887Z,99.90
2022-09-26T02:55:11.734Z,99.90
2022-09-26T02:57:48.299Z,99.90
2022-09-26T03:00:21.251Z,99.90
2022-09-26T03:02:56.579Z,99.90
2022-09-26T03:05:28.995Z,99.90
2022-09-26T03:08:02.207Z,99.90
2022-09-26T03:10:32.379Z,99.90
2022-09-26T03:13:07.322Z,99.90
2022-09-26T03:15:38.164Z,99.90
2022-09-26T03:18:11.314Z,99.90
2022-09-26T03:20:41.544Z,99.90
2022-09-26T03:23:09.919Z,99.90
2022-09-26T03:25:38.270Z,99.90
2022-09-26T03:28:06.240Z,99.90
2022-09-26T03:30:34.598Z,99.90
2022-09-26T03:33:03.356Z,99.90
2022-09-26T03:35:31.481Z,99.90
2022-09-26T03:38:00.798Z,99.90
2022-09-26T03:40:28.762Z,99.90
2022-09-26T03:42:56.692Z,99.90
2022-09-26T03:45:24.867Z,99.90
2022-09-26T03:47:56.727Z,99.90
2022-09-26T03:50:24.839Z,99.90
2022-09-26T03:52:53.039Z,99.90
2022-09-26T03:55:22.495Z,99.90
2022-09-26T03:57:50.393Z,99.90
2022-09-26T04:00:18.556Z,99.90
2022-09-26T04:02:46.597Z,99.90
2022-09-26T04:05:14.645Z,99.90
2022-09-26T04:07:44.567Z,99.90
2022-09-26T04:10:12.723Z,99.90
2022-09-26T04:12:42.420Z,99.90
2022-09-26T04:15:11.207Z,99.90
2022-09-26T04:17:39.196Z,99.90
2022-09-26T04:20:07.451Z,99.90
2022-09-26T04:22:35.426Z,99.90
2022-09-26T04:25:03.361Z,99.90
2022-09-26T04:27:31.312Z,99.90
2022-09-26T04:30:00.657Z,99.90
2022-09-26T04:32:28.583Z,99.90
2022-09-26T04:34:56.509Z,99.90
2022-09-26T04:37:25.502Z,99.90
2022-09-26T04:39:53.451Z,99.90
2022-09-26T04:42:21.448Z,99.90
2022-09-26T04:44:49.378Z,99.90
2022-09-26T04:47:18.866Z,99.90
2022-09-26T04:49:46.940Z,99.90
2022-09-26T04:52:15.251Z,99.90
2022-09-26T04:54:44.138Z,99.90
2022-09-26T04:57:18.764Z,99.90
2022-09-26T04:59:47.775Z,99.90
2022-09-26T05:02:15.918Z,99.90
2022-09-26T05:04:46.683Z,99.90
2022-09-26T05:07:16.308Z,99.90
2022-09-26T05:09:44.882Z,99.90
2022-09-26T05:12:13.385Z,99.90
2022-09-26T05:14:44.383Z,99.90
2022-09-26T05:17:12.776Z,99.90
2022-09-26T05:19:43.091Z,99.90
2022-09-26T05:22:12.577Z,99.90
2022-09-26T05:24:58.086Z,99.90
2022-09-26T05:27:26.087Z,99.90
2022-09-26T05:29:56.441Z,99.90
2022-09-26T05:32:24.571Z,99.90
2022-09-26T05:34:52.760Z,99.90
2022-09-26T05:37:22.203Z,99.90
2022-09-26T05:40:07.659Z,99.90
2022-09-26T05:42:35.739Z,99.90
2022-09-26T05:45:03.852Z,99.90
2022-09-26T05:47:36.352Z,99.90
2022-09-26T05:50:10.081Z,99.90
2022-09-26T05:52:40.036Z,99.90
2022-09-26T05:55:08.378Z,99.90
2022-09-26T05:57:36.340Z,99.90
2022-09-26T06:00:04.461Z,99.90
2022-09-26T06:02:32.732Z,99.90
2022-09-26T06:05:00.669Z,99.90
2022-09-26T06:07:28.673Z,99.90
2022-09-26T06:09:58.085Z,99.90
2022-09-26T06:12:27.475Z,99.90
2022-09-26T06:14:55.443Z,99.90
2022-09-26T06:17:24.100Z,99.90
2022-09-26T06:19:52.137Z,99.90
2022-09-26T06:22:20.184Z,99.90
2022-09-26T06:24:48.218Z,99.90
2022-09-26T06:27:17.630Z,99.90
2022-09-26T06:29:45.656Z,99.90
2022-09-26T06:32:13.585Z,99.90
2022-09-26T06:34:41.497Z,99.90
2022-09-26T06:37:09.573Z,99.90
2022-09-26T06:39:37.575Z,99.90
2022-09-26T06:42:07.501Z,99.90
2022-09-26T06:44:37.077Z,99.90
2022-09-26T06:47:05.492Z,99.90
2022-09-26T06:49:35.013Z,99.90
2022-09-26T06:52:03.088Z,99.90
2022-09-26T06:54:31.124Z,99.90
2022-09-26T06:56:59.066Z,99.90
2022-09-26T06:59:27.022Z,99.90
2022-09-26T07:01:56.623Z,99.90
2022-09-26T07:04:27.342Z,99.90
2022-09-26T07:06:58.149Z,99.90
2022-09-26T07:09:26.308Z,99.90
2022-09-26T07:12:14.554Z,99.90
2022-09-26T07:14:42.915Z,99.90
2022-09-26T07:17:15.563Z,99.90
2022-09-26T07:19:43.527Z,99.90
2022-09-26T07:22:11.802Z,99.90
2022-09-26T07:24:40.104Z,99.90
2022-09-26T07:27:08.032Z,99.90
2022-09-26T07:29:35.948Z,99.90
2022-09-26T07:32:03.999Z,99.90
2022-09-26T07:34:33.545Z,99.90
2022-09-26T07:37:01.953Z,99.90
2022-09-26T07:39:29.906Z,99.90
2022-09-26T07:41:58.168Z,99.90
2022-09-26T07:45:17.429Z,99.90
2022-09-26T07:47:31.581Z,99.90
2022-09-26T07:50:13.167Z,99.90
2022-09-26T07:52:42.237Z,99.90
2022-09-26T07:55:11.040Z,99.90
2022-09-26T07:57:38.931Z,99.90
2022-09-26T08:00:08.135Z,99.90
2022-09-26T08:02:36.507Z,99.90
2022-09-26T08:05:06.348Z,99.90
2022-09-26T08:07:35.406Z,99.90
2022-09-26T08:10:04.276Z,99.90
2022-09-26T08:12:35.329Z,99.90
2022-09-26T08:15:06.404Z,99.90
2022-09-26T08:17:34.660Z,99.90
2022-09-26T08:20:03.408Z,99.90
2022-09-26T08:22:33.160Z,99.90
2022-09-26T08:25:01.390Z,99.90
2022-09-26T08:27:33.595Z,99.90
2022-09-26T08:30:04.317Z,99.90
2022-09-26T08:32:33.849Z,99.90
2022-09-26T08:35:01.918Z,99.90
2022-09-26T08:37:31.269Z,99.90
2022-09-26T08:40:01.403Z,99.90
2022-09-26T08:42:34.645Z,99.90
2022-09-26T08:45:38.316Z,99.90
2022-09-26T08:48:14.764Z,99.90
2022-09-26T08:50:46.859Z,99.90
2022-09-26T08:53:16.900Z,99.90
2022-09-26T08:55:47.813Z,99.90
2022-09-26T08:58:18.207Z,99.90
2022-09-26T09:00:47.344Z,99.90
2022-09-26T09:03:22.137Z,99.90
2022-09-26T09:05:52.128Z,99.90
2022-09-26T09:08:22.625Z,99.90
2022-09-26T09:10:56.963Z,99.90
2022-09-26T09:13:32.280Z,99.90
2022-09-26T09:16:08.706Z,99.90
2022-09-26T09:18:41.612Z,99.90
2022-09-26T09:21:12.468Z,99.90
2022-09-26T09:23:50.538Z,99.90
2022-09-26T09:29:32.937Z,99.90
2022-09-26T09:32:02.185Z,99.90
2022-09-26T09:34:32.528Z,99.90
2022-09-26T09:37:02.638Z,99.90
2022-09-26T09:39:33.178Z,99.90
2022-09-26T09:42:04.812Z,99.90
2022-09-26T09:44:37.040Z,99.90
2022-09-26T09:47:09.867Z,99.30
2022-09-26T09:49:37.844Z,99.90
2022-09-26T09:52:11.884Z,99.90
2022-09-26T09:54:45.366Z,95.90
2022-09-26T09:57:22.496Z,90.50
2022-09-26T10:00:04.039Z,90.80
2022-09-26T10:02:36.925Z,89.40
2022-09-26T10:05:16.424Z,91.60
2022-09-26T10:07:47.654Z,95.10
2022-09-26T10:10:19.556Z,97.30
2022-09-26T10:12:49.429Z,99.90
2022-09-26T10:15:19.865Z,99.00
2022-09-26T10:20:54.567Z,99.40
2022-09-26T10:23:24.699Z,99.90
2022-09-26T10:26:00.183Z,99.90
2022-09-26T10:28:31.509Z,99.90
2022-09-26T10:31:07.896Z,99.90
2022-09-26T10:33:37.355Z,99.90
2022-09-26T10:36:19.865Z,99.90
2022-09-26T10:39:06.183Z,99.90
2022-09-26T10:41:39.486Z,94.30
2022-09-26T10:44:21.827Z,87.80
2022-09-26T10:46:51.569Z,90.30
2022-09-26T10:49:23.635Z,86.40
2022-09-26T10:51:54.791Z,76.70
2022-09-26T10:54:24.116Z,79.30
2022-09-26T10:56:59.298Z,70.30
2022-09-26T10:59:31.529Z,72.50
2022-09-26T11:02:01.320Z,74.60
2022-09-26T11:04:47.854Z,72.30
2022-09-26T11:07:21.737Z,81.90
2022-09-26T11:09:49.728Z,84.80
2022-09-26T11:12:23.919Z,89.30
2022-09-26T11:14:58.176Z,92.50
2022-09-26T11:17:44.909Z,94.30
2022-09-26T11:20:17.583Z,92.10
2022-09-26T11:22:48.601Z,92.80
2022-09-26T11:25:18.674Z,94.30
2022-09-26T11:27:49.972Z,94.10
2022-09-26T11:30:21.020Z,90.80
2022-09-26T11:32:50.375Z,82.20
2022-09-26T11:35:21.208Z,76.60
2022-09-26T11:38:05.236Z,73.40
2022-09-26T11:40:44.590Z,72.40
2022-09-26T11:43:30.491Z,65.40
2022-09-26T11:46:15.019Z,60.50
2022-09-26T11:48:58.055Z,62.40
2022-09-26T11:51:36.732Z,58.70
2022-09-26T11:54:13.282Z,55.30
2022-09-26T11:56:59.275Z,57.40
2022-09-26T11:59:37.978Z,52.60
2022-09-26T12:02:18.446Z,57.90
2022-09-26T12:05:04.726Z,55.80
2022-09-26T12:07:38.856Z,52.50
2022-09-26T12:10:21.542Z,56.10
2022-09-26T12:12:52.161Z,56.40
2022-09-26T12:15:23.784Z,55.40
2022-09-26T12:18:04.319Z,61.60
2022-09-26T12:20:36.278Z,54.90
2022-09-26T12:23:08.639Z,59.90
2022-09-26T12:25:40.614Z,58.90
2022-09-26T12:28:17.094Z,64.10
2022-09-26T12:30:52.078Z,62.10
2022-09-26T12:33:28.397Z,65.30
2022-09-26T12:36:02.329Z,68.20
2022-09-26T12:38:51.956Z,74.00
2022-09-26T12:41:40.308Z,74.30
2022-09-26T12:44:23.269Z,77.30
2022-09-26T12:47:02.763Z,73.80
2022-09-26T12:49:39.567Z,71.50
2022-09-26T12:52:15.103Z,75.70
2022-09-26T12:54:48.442Z,74.00
2022-09-26T12:57:24.433Z,76.30
2022-09-26T13:00:09.983Z,75.80
2022-09-26T13:02:45.193Z,75.90
2022-09-26T13:05:34.627Z,76.20
2022-09-26T13:08:07.099Z,76.70
2022-09-26T13:10:48.565Z,75.90
2022-09-26T13:13:25.894Z,77.30
2022-09-26T13:16:04.106Z,76.30
2022-09-26T13:18:39.953Z,76.60
2022-09-26T13:21:10.171Z,82.70
2022-09-26T13:23:42.185Z,81.50
2022-09-26T13:26:14.580Z,84.30
2022-09-26T13:29:00.802Z,86.40
2022-09-26T13:31:38.315Z,84.00
2022-09-26T13:34:13.005Z,85.90
2022-09-26T13:36:42.987Z,86.80
2022-09-26T13:39:14.840Z,85.20
2022-09-26T13:41:48.553Z,86.70
2022-09-26T13:44:25.278Z,87.20
2022-09-26T13:46:59.311Z,87.70
2022-09-26T13:49:31.899Z,88.40
2022-09-26T13:52:08.435Z,90.00
2022-09-26T13:54:44.235Z,91.00
2022-09-26T13:57:31.947Z,91.60
2022-09-26T14:00:00.141Z,93.30
2022-09-26T14:02:29.547Z,93.60
2022-09-26T14:05:12.751Z,92.10
2022-09-26T14:08:10.047Z,93.00
2022-09-26T14:10:39.984Z,90.80
2022-09-26T14:13:18.389Z,90.10
2022-09-26T14:15:57.097Z,89.20
2022-09-26T14:18:33.204Z,87.30
2022-09-26T14:21:05.580Z,90.60
2022-09-26T14:23:38.299Z,90.60
2022-09-26T14:26:09.244Z,90.50
2022-09-26T14:28:38.559Z,91.20
2022-09-26T14:31:23.295Z,90.70
2022-09-26T14:33:54.859Z,90.50
2022-09-26T14:36:26.945Z,90.50
2022-09-26T14:38:55.622Z,91.40
2022-09-26T14:41:28.546Z,90.90
2022-09-26T14:44:02.348Z,90.60
2022-09-26T14:46:32.939Z,86.80
2022-09-26T14:49:05.429Z,85.60
2022-09-26T14:51:34.689Z,84.40
2022-09-26T14:54:04.176Z,87.00
2022-09-26T14:56:42.396Z,89.30
2022-09-26T14:59:39.514Z,90.20
2022-09-26T15:02:24.496Z,90.60
2022-09-26T15:04:55.531Z,89.80
2022-09-26T15:07:25.059Z,90.60
2022-09-26T15:09:56.598Z,91.30
2022-09-26T15:12:28.263Z,92.30
2022-09-26T15:15:01.174Z,93.10
2022-09-26T15:17:33.714Z,94.00
2022-09-26T15:20:03.687Z,94.80
2022-09-26T15:22:32.021Z,95.90
2022-09-26T15:25:08.414Z,95.70
2022-09-26T15:27:40.673Z,96.20
2022-09-26T15:30:17.392Z,97.30
2022-09-26T15:32:49.118Z,97.70
2022-09-26T15:35:17.720Z,98.20
2022-09-26T15:37:45.987Z,98.70
2022-09-26T15:40:17.435Z,99.30
2022-09-26T15:43:03.119Z,99.50
2022-09-26T15:45:33.613Z,99.50
2022-09-26T15:48:02.853Z,99.90
2022-09-26T15:50:34.443Z,99.90
2022-09-26T15:53:05.908Z,99.90
2022-09-26T15:55:35.398Z,99.90
2022-09-26T15:58:07.089Z,99.90
2022-09-26T16:00:37.597Z,99.90
2022-09-26T16:03:19.338Z,99.90
2022-09-26T16:05:48.519Z,99.90
2022-09-26T16:08:20.830Z,99.90
2022-09-26T16:10:53.908Z,99.90
2022-09-26T16:13:25.512Z,99.90
2022-09-26T16:16:04.034Z,99.90
2022-09-26T16:18:37.178Z,99.90
2022-09-26T16:21:22.989Z,99.90
2022-09-26T16:23:51.868Z,99.90
2022-09-26T16:26:31.596Z,99.90
2022-09-26T16:29:01.651Z,99.90
2022-09-26T16:31:31.206Z,99.90
2022-09-26T16:34:01.202Z,99.90
2022-09-26T16:36:30.408Z,99.90
2022-09-26T16:38:59.791Z,99.90
2022-09-26T16:44:27.405Z,99.90
2022-09-26T16:47:01.829Z,99.90
2022-09-26T16:49:48.420Z,99.90
2022-09-26T16:52:26.653Z,99.90
2022-09-26T16:54:54.884Z,99.90
2022-09-26T16:57:24.078Z,99.90
2022-09-26T17:00:14.074Z,99.90
2022-09-26T17:02:41.397Z,99.90
2022-09-26T17:05:15.280Z,99.90
2022-09-26T17:07:43.296Z,99.90
2022-09-26T17:10:11.312Z,99.90
2022-09-26T17:12:39.577Z,99.90
2022-09-26T17:15:10.354Z,99.90
2022-09-26T17:17:38.566Z,99.90
2022-09-26T17:20:07.067Z,99.90
2022-09-26T17:22:35.041Z,99.90
2022-09-26T17:25:04.559Z,99.90
2022-09-26T17:27:34.400Z,99.90
2022-09-26T17:30:03.344Z,99.90
2022-09-26T17:32:35.320Z,99.90
2022-09-26T17:35:04.896Z,99.90
2022-09-26T17:37:32.966Z,99.90
2022-09-26T17:40:00.916Z,99.90
2022-09-26T17:42:30.382Z,99.90
2022-09-26T17:44:58.498Z,99.90
2022-09-26T17:47:27.203Z,99.90
2022-09-26T17:49:58.052Z,99.90
2022-09-26T17:52:29.102Z,99.90
2022-09-26T17:54:58.623Z,99.90
2022-09-26T17:57:28.048Z,99.90
2022-09-26T17:59:56.218Z,99.90
2022-09-26T18:02:26.136Z,99.90
2022-09-26T18:04:55.189Z,99.90
2022-09-26T18:07:24.889Z,99.90
2022-09-26T18:09:53.385Z,99.90
2022-09-26T18:12:23.997Z,99.90
2022-09-26T18:14:52.438Z,99.90
2022-09-26T18:17:22.003Z,99.90
2022-09-26T18:19:50.706Z,99.90
2022-09-26T18:22:19.966Z,99.90
2022-09-26T18:24:52.489Z,99.90
2022-09-26T18:27:20.843Z,99.90
2022-09-26T18:29:49.107Z,99.90
2022-09-26T18:32:22.696Z,99.90
2022-09-26T18:34:50.682Z,99.90
2022-09-26T18:37:18.682Z,99.90
2022-09-26T18:39:50.847Z,99.90
2022-09-26T18:42:24.690Z,99.90
2022-09-26T18:44:57.861Z,99.90
2022-09-26T18:47:28.429Z,99.90
2022-09-26T18:49:56.408Z,99.90
2022-09-26T18:52:24.505Z,99.90
2022-09-26T18:55:13.344Z,99.90
2022-09-26T18:58:00.592Z,99.90
2022-09-26T19:00:29.040Z,99.90
2022-09-26T19:02:58.070Z,99.90
2022-09-26T19:05:26.331Z,99.90
2022-09-26T19:07:54.813Z,99.90
2022-09-26T19:10:23.974Z,99.90
2022-09-26T19:12:55.985Z,99.90
2022-09-26T19:15:24.018Z,99.90
2022-09-26T19:17:52.452Z,99.90
2022-09-26T19:20:21.676Z,99.90
2022-09-26T19:22:50.743Z,99.90
2022-09-26T19:25:18.899Z,99.90
2022-09-26T19:27:48.678Z,99.90
2022-09-26T19:30:21.209Z,99.90
2022-09-26T19:32:50.461Z,99.90
2022-09-26T19:35:21.933Z,99.90
2022-09-26T19:37:50.084Z,99.90
2022-09-26T19:40:19.750Z,99.90
2022-09-26T19:42:50.296Z,99.90
2022-09-26T19:45:20.251Z,99.90
2022-09-26T19:47:49.976Z,99.90
2022-09-26T19:50:19.110Z,99.90
2022-09-26T19:52:47.321Z,99.90
2022-09-26T19:55:15.875Z,99.90
2022-09-26T19:57:43.926Z,99.90
2022-09-26T20:00:12.749Z,99.90
2022-09-26T20:02:42.560Z,99.90
2022-09-26T20:05:16.315Z,99.90
2022-09-26T20:07:44.612Z,99.90
2022-09-26T20:10:15.909Z,99.90
2022-09-26T20:12:44.091Z,99.90
2022-09-26T20:15:12.647Z,99.90
2022-09-26T20:17:43.206Z,99.90
2022-09-26T20:20:14.519Z,99.90
2022-09-26T20:22:43.296Z,99.90
2022-09-26T20:25:15.755Z,99.90
2022-09-26T20:27:44.381Z,99.90
2022-09-26T20:30:36.361Z,99.90
2022-09-26T20:33:06.299Z,99.90
2022-09-26T20:35:36.946Z,99.90
2022-09-26T20:38:07.374Z,99.90
2022-09-26T20:40:36.101Z,99.90
2022-09-26T20:43:07.212Z,99.90
2022-09-26T20:45:38.396Z,99.90
2022-09-26T20:48:09.123Z,99.90
2022-09-26T20:50:38.575Z,99.90
2022-09-26T20:53:10.651Z,99.90
2022-09-26T20:55:43.252Z,99.90
2022-09-26T20:58:12.129Z,99.90
2022-09-26T21:00:40.499Z,99.90
2022-09-26T21:03:11.153Z,99.90
2022-09-26T21:05:39.238Z,99.90
2022-09-26T21:08:09.986Z,99.90
2022-09-26T21:10:38.268Z,99.90
2022-09-26T21:13:06.291Z,99.90
2022-09-26T21:15:34.552Z,99.90
2022-09-26T21:18:02.807Z,99.90
2022-09-26T21:20:33.442Z,99.90
2022-09-26T21:23:02.101Z,99.90
2022-09-26T21:25:30.698Z,99.90
2022-09-26T21:27:59.448Z,99.90
2022-09-26T21:30:27.521Z,99.90
2022-09-26T21:32:57.251Z,99.90
2022-09-26T21:35:26.687Z,99.90
2022-09-26T21:37:57.016Z,99.90
2022-09-26T21:40:26.687Z,99.90
2022-09-26T21:42:55.859Z,99.90
2022-09-26T21:45:27.774Z,99.90
2022-09-26T21:47:56.135Z,99.90
2022-09-26T21:50:24.354Z,99.90
2022-09-26T21:52:55.411Z,99.90
2022-09-26T21:55:26.782Z,99.90
2022-09-26T21:57:56.629Z,99.90
2022-09-26T22:00:24.622Z,99.90
2022-09-26T22:02:55.316Z,99.90
2022-09-26T22:05:23.360Z,99.90
2022-09-26T22:07:51.288Z,99.90
2022-09-26T22:10:20.012Z,99.90
2022-09-26T22:12:51.335Z,99.90
2022-09-26T22:15:19.387Z,99.90
2022-09-26T22:17:47.742Z,99.90
2022-09-26T22:20:17.457Z,99.90
2022-09-26T22:22:45.623Z,99.90
2022-09-26T22:25:13.771Z,99.90
2022-09-26T22:27:42.161Z,99.90
2022-09-26T22:30:12.485Z,99.90
2022-09-26T22:32:40.558Z,99.90
2022-09-26T22:35:09.097Z,99.90
2022-09-26T22:37:37.147Z,99.90
2022-09-26T22:40:05.448Z,99.90
2022-09-26T22:42:33.445Z,99.90
2022-09-26T22:45:01.784Z,99.90
2022-09-26T22:47:31.320Z,99.90
2022-09-26T22:49:59.440Z,99.90
2022-09-26T22:52:27.433Z,99.90
2022-09-26T22:54:55.584Z,99.90
2022-09-26T22:57:23.704Z,99.90
2022-09-26T22:59:51.798Z,99.90
2022-09-26T23:02:20.046Z,99.90
2022-09-26T23:04:49.530Z,99.90
2022-09-26T23:07:18.919Z,99.90
2022-09-26T23:09:47.222Z,99.90
2022-09-26T23:12:15.247Z,99.90
2022-09-26T23:14:43.303Z,99.90
2022-09-26T23:17:11.351Z,99.90
2022-09-26T23:19:40.252Z,99.90
2022-09-26T23:22:09.903Z,99.90
2022-09-26T23:24:37.862Z,99.90
2022-09-26T23:27:05.827Z,99.90
2022-09-26T23:29:33.776Z,99.90
2022-09-26T23:32:01.947Z,99.90
2022-09-26T23:34:29.856Z,99.90
2022-09-26T23:36:57.833Z,99.90
2022-09-26T23:39:27.204Z,99.90
2022-09-26T23:41:55.760Z,99.90
2022-09-26T23:44:23.800Z,99.90
2022-09-26T23:46:51.915Z,99.90
2022-09-26T23:49:19.919Z,99.90
2022-09-26T23:51:48.899Z,99.90
2022-09-26T23:54:17.120Z,99.90
2022-09-26T23:56:46.556Z,99.90
2022-09-26T23:59:14.774Z,99.90
